sensor_id;sensor_type;location;lat;lon;timestamp;temperature;humidity
52413;DHT22;38339;53.234;6.578;2022-07-06T00:00:48;14.80;99.90
52413;DHT22;38339;53.234;6.578;2022-07-06T00:03:14;14.70;99.90
52413;DHT22;38339;53.234;6.578;2022-07-06T00:05:40;14.70;99.90
52413;DHT22;38339;53.234;6.578;2022-07-06T00:08:05;14.70;99.90
52413;DHT22;38339;53.234;6.578;2022-07-06T00:10:31;14.70;99.90
52413;DHT22;38339;53.234;6.578;2022-07-06T00:12:57;14.70;99.90
52413;DHT22;38339;53.234;6.578;2022-07-06T00:15:22;14.80;99.90
52413;DHT22;38339;53.234;6.578;2022-07-06T00:17:48;14.90;99.90
52413;DHT22;38339;53.234;6.578;2022-07-06T00:20:14;14.90;99.90
52413;DHT22;38339;53.234;6.578;2022-07-06T00:22:40;14.90;99.90
52413;DHT22;38339;53.234;6.578;2022-07-06T00:25:06;14.80;99.90
52413;DHT22;38339;53.234;6.578;2022-07-06T00:27:32;14.80;99.90
52413;DHT22;38339;53.234;6.578;2022-07-06T00:29:57;14.80;99.90
52413;DHT22;38339;53.234;6.578;2022-07-06T00:32:23;14.80;99.90
52413;DHT22;38339;53.234;6.578;2022-07-06T00:34:50;14.80;99.90
52413;DHT22;38339;53.234;6.578;2022-07-06T00:37:16;14.80;99.90
52413;DHT22;38339;53.234;6.578;2022-07-06T00:39:42;14.80;99.90
52413;DHT22;38339;53.234;6.578;2022-07-06T00:42:08;14.70;99.90
52413;DHT22;38339;53.234;6.578;2022-07-06T00:44:40;14.70;99.90
52413;DHT22;38339;53.234;6.578;2022-07-06T00:47:06;14.70;99.90
52413;DHT22;38339;53.234;6.578;2022-07-06T00:49:33;14.70;99.90
52413;DHT22;38339;53.234;6.578;2022-07-06T00:52:18;14.60;99.90
52413;DHT22;38339;53.234;6.578;2022-07-06T00:54:45;14.60;99.90
52413;DHT22;38339;53.234;6.578;2022-07-06T00:57:12;14.60;99.90
52413;DHT22;38339;53.234;6.578;2022-07-06T00:59:38;14.60;99.90
52413;DHT22;38339;53.234;6.578;2022-07-06T01:02:03;14.60;99.90
52413;DHT22;38339;53.234;6.578;2022-07-06T01:04:29;14.60;99.90
52413;DHT22;38339;53.234;6.578;2022-07-06T01:06:56;14.60;99.90
52413;DHT22;38339;53.234;6.578;2022-07-06T01:09:22;14.60;99.90
52413;DHT22;38339;53.234;6.578;2022-07-06T01:11:48;14.60;99.90
52413;DHT22;38339;53.234;6.578;2022-07-06T01:14:14;14.60;99.90
52413;DHT22;38339;53.234;6.578;2022-07-06T01:16:40;14.60;99.90
52413;DHT22;38339;53.234;6.578;2022-07-06T01:22:21;14.60;99.90
52413;DHT22;38339;53.234;6.578;2022-07-06T01:24:47;14.70;99.90
52413;DHT22;38339;53.234;6.578;2022-07-06T01:27:13;14.70;99.90
52413;DHT22;38339;53.234;6.578;2022-07-06T01:29:38;14.70;99.90
52413;DHT22;38339;53.234;6.578;2022-07-06T01:32:04;14.70;99.90
52413;DHT22;38339;53.234;6.578;2022-07-06T01:34:30;14.60;99.90
52413;DHT22;38339;53.234;6.578;2022-07-06T01:36:56;14.60;99.90
52413;DHT22;38339;53.234;6.578;2022-07-06T01:39:22;14.60;99.90
52413;DHT22;38339;53.234;6.578;2022-07-06T01:41:47;14.60;99.90
52413;DHT22;38339;53.234;6.578;2022-07-06T01:44:13;14.50;99.90
52413;DHT22;38339;53.234;6.578;2022-07-06T01:46:39;14.50;99.90
52413;DHT22;38339;53.234;6.578;2022-07-06T01:49:05;14.50;99.90
52413;DHT22;38339;53.234;6.578;2022-07-06T01:51:31;14.50;99.90
52413;DHT22;38339;53.234;6.578;2022-07-06T01:53:57;14.50;99.90
52413;DHT22;38339;53.234;6.578;2022-07-06T01:56:22;14.50;99.90
52413;DHT22;38339;53.234;6.578;2022-07-06T01:58:49;14.60;99.90
52413;DHT22;38339;53.234;6.578;2022-07-06T02:01:16;14.70;99.90
52413;DHT22;38339;53.234;6.578;2022-07-06T02:03:43;14.60;99.90
52413;DHT22;38339;53.234;6.578;2022-07-06T02:06:09;14.60;99.90
52413;DHT22;38339;53.234;6.578;2022-07-06T02:08:35;14.60;99.90
52413;DHT22;38339;53.234;6.578;2022-07-06T02:11:05;14.60;99.90
52413;DHT22;38339;53.234;6.578;2022-07-06T02:13:32;14.60;99.90
52413;DHT22;38339;53.234;6.578;2022-07-06T02:15:58;14.50;99.90
52413;DHT22;38339;53.234;6.578;2022-07-06T02:18:23;14.50;99.90
52413;DHT22;38339;53.234;6.578;2022-07-06T02:20:49;14.50;99.90
52413;DHT22;38339;53.234;6.578;2022-07-06T02:23:15;14.50;99.90
52413;DHT22;38339;53.234;6.578;2022-07-06T02:25:41;14.50;99.90
52413;DHT22;38339;53.234;6.578;2022-07-06T02:28:06;14.40;99.90
52413;DHT22;38339;53.234;6.578;2022-07-06T02:30:32;14.40;99.90
52413;DHT22;38339;53.234;6.578;2022-07-06T02:32:58;14.30;99.90
52413;DHT22;38339;53.234;6.578;2022-07-06T02:35:24;14.30;99.90
52413;DHT22;38339;53.234;6.578;2022-07-06T02:37:50;14.30;99.90
52413;DHT22;38339;53.234;6.578;2022-07-06T02:40:15;14.20;99.90
52413;DHT22;38339;53.234;6.578;2022-07-06T02:42:41;14.20;99.90
52413;DHT22;38339;53.234;6.578;2022-07-06T02:45:07;14.10;99.90
52413;DHT22;38339;53.234;6.578;2022-07-06T02:47:33;14.10;99.90
52413;DHT22;38339;53.234;6.578;2022-07-06T02:50:02;14.10;99.90
52413;DHT22;38339;53.234;6.578;2022-07-06T02:52:28;14.00;99.90
52413;DHT22;38339;53.234;6.578;2022-07-06T02:54:53;14.00;99.90
52413;DHT22;38339;53.234;6.578;2022-07-06T02:57:19;13.90;99.90
52413;DHT22;38339;53.234;6.578;2022-07-06T02:59:45;13.80;99.90
52413;DHT22;38339;53.234;6.578;2022-07-06T03:02:11;13.90;99.90
52413;DHT22;38339;53.234;6.578;2022-07-06T03:04:37;13.80;99.90
52413;DHT22;38339;53.234;6.578;2022-07-06T03:07:03;13.80;99.90
52413;DHT22;38339;53.234;6.578;2022-07-06T03:09:29;13.80;99.90
52413;DHT22;38339;53.234;6.578;2022-07-06T03:11:54;13.70;99.90
52413;DHT22;38339;53.234;6.578;2022-07-06T03:14:20;13.70;99.90
52413;DHT22;38339;53.234;6.578;2022-07-06T03:16:46;13.70;99.90
52413;DHT22;38339;53.234;6.578;2022-07-06T03:19:12;13.70;99.90
52413;DHT22;38339;53.234;6.578;2022-07-06T03:21:37;13.60;99.90
52413;DHT22;38339;53.234;6.578;2022-07-06T03:24:03;13.60;99.90
52413;DHT22;38339;53.234;6.578;2022-07-06T03:26:29;13.60;99.90
52413;DHT22;38339;53.234;6.578;2022-07-06T03:28:55;13.60;99.90
52413;DHT22;38339;53.234;6.578;2022-07-06T03:31:21;13.50;99.90
52413;DHT22;38339;53.234;6.578;2022-07-06T03:33:46;13.50;99.90
52413;DHT22;38339;53.234;6.578;2022-07-06T03:36:13;13.50;99.90
52413;DHT22;38339;53.234;6.578;2022-07-06T03:38:38;13.50;99.90
52413;DHT22;38339;53.234;6.578;2022-07-06T03:41:04;13.50;99.90
52413;DHT22;38339;53.234;6.578;2022-07-06T03:43:30;13.50;99.90
52413;DHT22;38339;53.234;6.578;2022-07-06T03:45:56;13.50;99.90
52413;DHT22;38339;53.234;6.578;2022-07-06T03:48:22;13.50;99.90
52413;DHT22;38339;53.234;6.578;2022-07-06T03:50:48;13.50;99.90
52413;DHT22;38339;53.234;6.578;2022-07-06T03:53:13;13.40;99.90
52413;DHT22;38339;53.234;6.578;2022-07-06T03:55:39;13.40;99.90
52413;DHT22;38339;53.234;6.578;2022-07-06T03:58:05;13.40;99.90
52413;DHT22;38339;53.234;6.578;2022-07-06T04:00:37;13.40;99.90
52413;DHT22;38339;53.234;6.578;2022-07-06T04:03:08;13.40;99.90
52413;DHT22;38339;53.234;6.578;2022-07-06T04:05:34;13.40;99.90
52413;DHT22;38339;53.234;6.578;2022-07-06T04:07:59;13.40;99.90
52413;DHT22;38339;53.234;6.578;2022-07-06T04:10:25;13.40;99.90
52413;DHT22;38339;53.234;6.578;2022-07-06T04:12:51;13.40;99.90
52413;DHT22;38339;53.234;6.578;2022-07-06T04:15:17;13.40;99.90
52413;DHT22;38339;53.234;6.578;2022-07-06T04:17:42;13.50;99.90
52413;DHT22;38339;53.234;6.578;2022-07-06T04:20:17;13.50;99.90
52413;DHT22;38339;53.234;6.578;2022-07-06T04:22:43;13.50;99.90
52413;DHT22;38339;53.234;6.578;2022-07-06T04:25:09;13.50;99.90
52413;DHT22;38339;53.234;6.578;2022-07-06T04:27:35;13.60;99.90
52413;DHT22;38339;53.234;6.578;2022-07-06T04:30:04;13.60;99.90
52413;DHT22;38339;53.234;6.578;2022-07-06T04:32:31;13.60;99.90
52413;DHT22;38339;53.234;6.578;2022-07-06T04:34:56;13.70;99.90
52413;DHT22;38339;53.234;6.578;2022-07-06T04:37:22;13.60;99.90
52413;DHT22;38339;53.234;6.578;2022-07-06T04:39:48;13.60;99.90
52413;DHT22;38339;53.234;6.578;2022-07-06T04:42:14;13.50;99.90
52413;DHT22;38339;53.234;6.578;2022-07-06T04:44:39;13.40;99.90
52413;DHT22;38339;53.234;6.578;2022-07-06T04:47:05;13.50;99.90
52413;DHT22;38339;53.234;6.578;2022-07-06T04:49:31;13.50;99.90
52413;DHT22;38339;53.234;6.578;2022-07-06T04:51:57;13.40;99.90
52413;DHT22;38339;53.234;6.578;2022-07-06T04:54:23;13.30;99.90
52413;DHT22;38339;53.234;6.578;2022-07-06T04:56:49;13.30;99.90
52413;DHT22;38339;53.234;6.578;2022-07-06T04:59:14;13.40;99.90
52413;DHT22;38339;53.234;6.578;2022-07-06T05:01:40;13.40;99.90
52413;DHT22;38339;53.234;6.578;2022-07-06T05:04:06;13.50;99.90
52413;DHT22;38339;53.234;6.578;2022-07-06T05:06:32;13.60;99.90
52413;DHT22;38339;53.234;6.578;2022-07-06T05:08:58;13.70;99.90
52413;DHT22;38339;53.234;6.578;2022-07-06T05:11:27;13.80;99.90
52413;DHT22;38339;53.234;6.578;2022-07-06T05:13:56;13.90;99.90
52413;DHT22;38339;53.234;6.578;2022-07-06T05:16:21;14.00;99.90
52413;DHT22;38339;53.234;6.578;2022-07-06T05:18:47;14.10;99.90
52413;DHT22;38339;53.234;6.578;2022-07-06T05:21:13;14.10;99.90
52413;DHT22;38339;53.234;6.578;2022-07-06T05:23:39;14.30;99.90
52413;DHT22;38339;53.234;6.578;2022-07-06T05:26:05;14.30;99.90
52413;DHT22;38339;53.234;6.578;2022-07-06T05:28:31;14.40;99.90
52413;DHT22;38339;53.234;6.578;2022-07-06T05:30:57;14.50;99.90
52413;DHT22;38339;53.234;6.578;2022-07-06T05:33:23;14.50;99.90
52413;DHT22;38339;53.234;6.578;2022-07-06T05:35:48;14.60;99.90
52413;DHT22;38339;53.234;6.578;2022-07-06T05:38:15;14.70;99.90
52413;DHT22;38339;53.234;6.578;2022-07-06T05:40:40;14.70;99.90
52413;DHT22;38339;53.234;6.578;2022-07-06T05:43:06;14.70;99.90
52413;DHT22;38339;53.234;6.578;2022-07-06T05:45:35;14.70;99.90
52413;DHT22;38339;53.234;6.578;2022-07-06T05:48:00;14.70;99.90
52413;DHT22;38339;53.234;6.578;2022-07-06T05:50:45;14.60;99.90
52413;DHT22;38339;53.234;6.578;2022-07-06T05:53:10;14.60;99.90
52413;DHT22;38339;53.234;6.578;2022-07-06T05:55:42;14.50;99.90
52413;DHT22;38339;53.234;6.578;2022-07-06T05:58:08;14.50;99.90
52413;DHT22;38339;53.234;6.578;2022-07-06T06:00:34;14.50;99.90
52413;DHT22;38339;53.234;6.578;2022-07-06T06:03:00;14.50;99.90
52413;DHT22;38339;53.234;6.578;2022-07-06T06:05:26;14.50;99.90
52413;DHT22;38339;53.234;6.578;2022-07-06T06:07:52;14.60;99.90
52413;DHT22;38339;53.234;6.578;2022-07-06T06:10:19;14.80;99.90
52413;DHT22;38339;53.234;6.578;2022-07-06T06:12:45;14.70;99.90
52413;DHT22;38339;53.234;6.578;2022-07-06T06:15:12;14.80;99.90
52413;DHT22;38339;53.234;6.578;2022-07-06T06:17:38;14.90;99.90
52413;DHT22;38339;53.234;6.578;2022-07-06T06:20:09;15.00;99.90
52413;DHT22;38339;53.234;6.578;2022-07-06T06:22:50;15.00;99.90
52413;DHT22;38339;53.234;6.578;2022-07-06T06:25:17;15.10;99.90
52413;DHT22;38339;53.234;6.578;2022-07-06T06:27:44;15.00;99.90
52413;DHT22;38339;53.234;6.578;2022-07-06T06:30:10;15.10;99.90
52413;DHT22;38339;53.234;6.578;2022-07-06T06:32:36;15.10;99.90
52413;DHT22;38339;53.234;6.578;2022-07-06T06:35:03;15.10;99.90
52413;DHT22;38339;53.234;6.578;2022-07-06T06:37:29;15.00;99.90
52413;DHT22;38339;53.234;6.578;2022-07-06T06:39:56;15.00;99.90
52413;DHT22;38339;53.234;6.578;2022-07-06T06:42:22;14.90;99.90
52413;DHT22;38339;53.234;6.578;2022-07-06T06:44:48;14.90;99.90
52413;DHT22;38339;53.234;6.578;2022-07-06T06:47:13;15.10;99.90
52413;DHT22;38339;53.234;6.578;2022-07-06T06:49:39;15.20;99.90
52413;DHT22;38339;53.234;6.578;2022-07-06T06:52:05;15.30;99.90
52413;DHT22;38339;53.234;6.578;2022-07-06T06:54:30;15.50;99.90
52413;DHT22;38339;53.234;6.578;2022-07-06T06:56:56;15.70;99.90
52413;DHT22;38339;53.234;6.578;2022-07-06T06:59:22;15.70;99.90
52413;DHT22;38339;53.234;6.578;2022-07-06T07:01:48;15.80;99.90
52413;DHT22;38339;53.234;6.578;2022-07-06T07:04:14;15.90;99.90
52413;DHT22;38339;53.234;6.578;2022-07-06T07:06:39;16.00;99.90
52413;DHT22;38339;53.234;6.578;2022-07-06T07:09:05;16.00;99.90
52413;DHT22;38339;53.234;6.578;2022-07-06T07:11:31;16.10;99.90
52413;DHT22;38339;53.234;6.578;2022-07-06T07:13:57;16.00;99.90
52413;DHT22;38339;53.234;6.578;2022-07-06T07:16:23;15.90;99.90
52413;DHT22;38339;53.234;6.578;2022-07-06T07:18:51;16.00;99.90
52413;DHT22;38339;53.234;6.578;2022-07-06T07:21:17;16.00;99.90
52413;DHT22;38339;53.234;6.578;2022-07-06T07:23:43;16.00;99.90
52413;DHT22;38339;53.234;6.578;2022-07-06T07:26:12;16.00;99.90
52413;DHT22;38339;53.234;6.578;2022-07-06T07:28:37;15.90;99.90
52413;DHT22;38339;53.234;6.578;2022-07-06T07:31:09;15.90;99.90
52413;DHT22;38339;53.234;6.578;2022-07-06T07:33:35;15.80;99.90
52413;DHT22;38339;53.234;6.578;2022-07-06T07:36:01;15.70;99.90
52413;DHT22;38339;53.234;6.578;2022-07-06T07:38:26;15.80;99.90
52413;DHT22;38339;53.234;6.578;2022-07-06T07:40:55;15.80;99.90
52413;DHT22;38339;53.234;6.578;2022-07-06T07:43:21;15.90;99.90
52413;DHT22;38339;53.234;6.578;2022-07-06T07:45:48;16.10;99.90
52413;DHT22;38339;53.234;6.578;2022-07-06T07:48:14;16.20;99.90
52413;DHT22;38339;53.234;6.578;2022-07-06T07:50:41;16.30;99.90
52413;DHT22;38339;53.234;6.578;2022-07-06T07:53:10;16.30;99.90
52413;DHT22;38339;53.234;6.578;2022-07-06T07:55:35;16.30;99.90
52413;DHT22;38339;53.234;6.578;2022-07-06T07:58:01;16.40;99.90
52413;DHT22;38339;53.234;6.578;2022-07-06T08:00:27;16.50;99.90
52413;DHT22;38339;53.234;6.578;2022-07-06T08:02:54;16.60;99.90
52413;DHT22;38339;53.234;6.578;2022-07-06T08:05:20;16.60;99.90
52413;DHT22;38339;53.234;6.578;2022-07-06T08:07:46;16.60;99.90
52413;DHT22;38339;53.234;6.578;2022-07-06T08:10:12;16.60;99.90
52413;DHT22;38339;53.234;6.578;2022-07-06T08:12:38;16.60;99.90
52413;DHT22;38339;53.234;6.578;2022-07-06T08:15:04;16.60;99.90
52413;DHT22;38339;53.234;6.578;2022-07-06T08:17:31;16.70;99.90
52413;DHT22;38339;53.234;6.578;2022-07-06T08:19:57;16.70;99.90
52413;DHT22;38339;53.234;6.578;2022-07-06T08:22:22;16.70;99.90
52413;DHT22;38339;53.234;6.578;2022-07-06T08:24:48;16.80;99.90
52413;DHT22;38339;53.234;6.578;2022-07-06T08:27:14;16.80;99.90
52413;DHT22;38339;53.234;6.578;2022-07-06T08:29:40;16.80;99.90
52413;DHT22;38339;53.234;6.578;2022-07-06T08:32:06;16.90;99.90
52413;DHT22;38339;53.234;6.578;2022-07-06T08:34:31;17.00;99.90
52413;DHT22;38339;53.234;6.578;2022-07-06T08:36:57;17.10;99.90
52413;DHT22;38339;53.234;6.578;2022-07-06T08:39:23;17.10;99.90
52413;DHT22;38339;53.234;6.578;2022-07-06T08:41:49;17.20;99.60
52413;DHT22;38339;53.234;6.578;2022-07-06T08:44:17;17.20;99.40
52413;DHT22;38339;53.234;6.578;2022-07-06T08:46:44;17.20;99.70
52413;DHT22;38339;53.234;6.578;2022-07-06T08:49:14;17.20;99.50
52413;DHT22;38339;53.234;6.578;2022-07-06T08:51:42;17.20;99.90
52413;DHT22;38339;53.234;6.578;2022-07-06T08:54:08;17.20;99.90
52413;DHT22;38339;53.234;6.578;2022-07-06T08:56:35;17.30;99.90
52413;DHT22;38339;53.234;6.578;2022-07-06T08:59:01;17.40;99.90
52413;DHT22;38339;53.234;6.578;2022-07-06T09:01:27;17.40;99.90
52413;DHT22;38339;53.234;6.578;2022-07-06T09:03:54;17.50;99.90
52413;DHT22;38339;53.234;6.578;2022-07-06T09:06:24;17.40;99.90
52413;DHT22;38339;53.234;6.578;2022-07-06T09:08:52;17.40;99.90
52413;DHT22;38339;53.234;6.578;2022-07-06T09:11:19;17.30;99.90
52413;DHT22;38339;53.234;6.578;2022-07-06T09:13:44;17.20;99.90
52413;DHT22;38339;53.234;6.578;2022-07-06T09:16:12;17.20;99.90
52413;DHT22;38339;53.234;6.578;2022-07-06T09:18:38;17.20;99.90
52413;DHT22;38339;53.234;6.578;2022-07-06T09:21:05;17.20;99.90
52413;DHT22;38339;53.234;6.578;2022-07-06T09:23:32;17.10;99.90
52413;DHT22;38339;53.234;6.578;2022-07-06T09:25:58;17.10;99.90
52413;DHT22;38339;53.234;6.578;2022-07-06T09:28:23;17.30;99.90
52413;DHT22;38339;53.234;6.578;2022-07-06T09:31:08;17.40;99.90
52413;DHT22;38339;53.234;6.578;2022-07-06T09:33:35;17.60;99.90
52413;DHT22;38339;53.234;6.578;2022-07-06T09:36:00;17.70;99.90
52413;DHT22;38339;53.234;6.578;2022-07-06T09:38:28;17.80;99.90
52413;DHT22;38339;53.234;6.578;2022-07-06T09:40:59;17.80;99.90
52413;DHT22;38339;53.234;6.578;2022-07-06T09:43:28;17.80;99.90
52413;DHT22;38339;53.234;6.578;2022-07-06T09:45:57;17.80;99.90
52413;DHT22;38339;53.234;6.578;2022-07-06T09:48:25;18.00;99.90
52413;DHT22;38339;53.234;6.578;2022-07-06T09:53:22;18.10;99.90
52413;DHT22;38339;53.234;6.578;2022-07-06T09:55:52;18.00;99.90
52413;DHT22;38339;53.234;6.578;2022-07-06T09:58:19;17.90;99.90
52413;DHT22;38339;53.234;6.578;2022-07-06T10:00:45;17.90;99.90
52413;DHT22;38339;53.234;6.578;2022-07-06T10:03:12;17.80;99.90
52413;DHT22;38339;53.234;6.578;2022-07-06T10:05:43;17.70;99.90
52413;DHT22;38339;53.234;6.578;2022-07-06T10:08:09;17.70;99.90
52413;DHT22;38339;53.234;6.578;2022-07-06T10:10:38;17.70;99.90
52413;DHT22;38339;53.234;6.578;2022-07-06T10:13:05;17.80;99.90
52413;DHT22;38339;53.234;6.578;2022-07-06T10:15:33;17.90;99.90
52413;DHT22;38339;53.234;6.578;2022-07-06T10:18:04;18.00;99.90
52413;DHT22;38339;53.234;6.578;2022-07-06T10:20:35;18.00;99.90
52413;DHT22;38339;53.234;6.578;2022-07-06T10:23:07;18.00;99.90
52413;DHT22;38339;53.234;6.578;2022-07-06T10:25:34;17.80;99.90
52413;DHT22;38339;53.234;6.578;2022-07-06T10:28:00;17.80;99.90
52413;DHT22;38339;53.234;6.578;2022-07-06T10:30:27;17.90;99.90
52413;DHT22;38339;53.234;6.578;2022-07-06T10:32:56;17.80;99.90
52413;DHT22;38339;53.234;6.578;2022-07-06T10:35:22;17.90;99.90
52413;DHT22;38339;53.234;6.578;2022-07-06T10:38:08;18.00;99.90
52413;DHT22;38339;53.234;6.578;2022-07-06T10:40:36;18.00;99.90
52413;DHT22;38339;53.234;6.578;2022-07-06T10:43:21;17.90;99.90
52413;DHT22;38339;53.234;6.578;2022-07-06T10:50:38;18.40;99.00
52413;DHT22;38339;53.234;6.578;2022-07-06T10:53:11;18.40;98.50
52413;DHT22;38339;53.234;6.578;2022-07-06T10:55:41;18.50;98.80
52413;DHT22;38339;53.234;6.578;2022-07-06T10:58:08;18.70;98.40
52413;DHT22;38339;53.234;6.578;2022-07-06T11:00:51;18.70;98.00
52413;DHT22;38339;53.234;6.578;2022-07-06T11:03:31;18.60;97.40
52413;DHT22;38339;53.234;6.578;2022-07-06T11:06:01;18.50;97.30
52413;DHT22;38339;53.234;6.578;2022-07-06T11:16:34;18.70;97.50
52413;DHT22;38339;53.234;6.578;2022-07-06T11:19:10;18.80;97.40
52413;DHT22;38339;53.234;6.578;2022-07-06T11:21:38;19.00;97.40
52413;DHT22;38339;53.234;6.578;2022-07-06T11:24:06;19.10;97.40
52413;DHT22;38339;53.234;6.578;2022-07-06T11:26:33;19.20;97.10
52413;DHT22;38339;53.234;6.578;2022-07-06T11:29:03;19.20;97.00
52413;DHT22;38339;53.234;6.578;2022-07-06T11:31:30;19.20;97.10
52413;DHT22;38339;53.234;6.578;2022-07-06T11:33:55;19.20;97.30
52413;DHT22;38339;53.234;6.578;2022-07-06T11:36:22;19.30;97.20
52413;DHT22;38339;53.234;6.578;2022-07-06T11:38:49;19.30;96.90
52413;DHT22;38339;53.234;6.578;2022-07-06T11:41:16;19.30;96.30
52413;DHT22;38339;53.234;6.578;2022-07-06T11:43:44;19.20;95.20
52413;DHT22;38339;53.234;6.578;2022-07-06T11:49:00;19.20;95.10
52413;DHT22;38339;53.234;6.578;2022-07-06T11:51:27;19.30;96.20
52413;DHT22;38339;53.234;6.578;2022-07-06T11:53:56;19.50;95.90
52413;DHT22;38339;53.234;6.578;2022-07-06T11:56:23;19.60;95.10
52413;DHT22;38339;53.234;6.578;2022-07-06T11:58:53;19.70;95.40
52413;DHT22;38339;53.234;6.578;2022-07-06T12:01:21;19.60;95.30
52413;DHT22;38339;53.234;6.578;2022-07-06T12:03:48;19.60;95.40
52413;DHT22;38339;53.234;6.578;2022-07-06T12:06:19;19.70;95.50
52413;DHT22;38339;53.234;6.578;2022-07-06T12:08:51;19.70;95.60
52413;DHT22;38339;53.234;6.578;2022-07-06T12:11:20;19.80;95.90
52413;DHT22;38339;53.234;6.578;2022-07-06T12:13:47;19.90;95.30
52413;DHT22;38339;53.234;6.578;2022-07-06T12:16:14;20.00;95.60
52413;DHT22;38339;53.234;6.578;2022-07-06T12:18:44;20.10;95.30
52413;DHT22;38339;53.234;6.578;2022-07-06T12:21:12;20.00;95.00
52413;DHT22;38339;53.234;6.578;2022-07-06T12:23:40;20.00;95.30
52413;DHT22;38339;53.234;6.578;2022-07-06T12:26:06;20.10;95.30
52413;DHT22;38339;53.234;6.578;2022-07-06T12:28:32;20.00;95.00
52413;DHT22;38339;53.234;6.578;2022-07-06T12:30:57;20.00;95.10
52413;DHT22;38339;53.234;6.578;2022-07-06T12:33:26;19.80;94.90
52413;DHT22;38339;53.234;6.578;2022-07-06T12:35:54;19.70;95.00
52413;DHT22;38339;53.234;6.578;2022-07-06T12:38:26;19.70;95.20
52413;DHT22;38339;53.234;6.578;2022-07-06T12:40:53;19.80;95.30
52413;DHT22;38339;53.234;6.578;2022-07-06T12:43:40;20.00;95.40
52413;DHT22;38339;53.234;6.578;2022-07-06T12:46:37;20.10;94.70
52413;DHT22;38339;53.234;6.578;2022-07-06T12:49:21;20.00;94.60
52413;DHT22;38339;53.234;6.578;2022-07-06T12:54:19;19.70;95.20
52413;DHT22;38339;53.234;6.578;2022-07-06T12:59:43;19.60;95.60
52413;DHT22;38339;53.234;6.578;2022-07-06T13:02:17;19.50;95.70
52413;DHT22;38339;53.234;6.578;2022-07-06T13:04:43;19.50;95.70
52413;DHT22;38339;53.234;6.578;2022-07-06T13:07:18;19.50;95.60
52413;DHT22;38339;53.234;6.578;2022-07-06T13:09:45;19.50;95.80
52413;DHT22;38339;53.234;6.578;2022-07-06T13:12:13;19.40;95.70
52413;DHT22;38339;53.234;6.578;2022-07-06T13:14:38;19.40;95.80
52413;DHT22;38339;53.234;6.578;2022-07-06T13:17:04;19.40;95.80
52413;DHT22;38339;53.234;6.578;2022-07-06T13:19:30;19.50;95.50
52413;DHT22;38339;53.234;6.578;2022-07-06T13:21:56;19.60;95.60
52413;DHT22;38339;53.234;6.578;2022-07-06T13:24:21;19.60;95.30
52413;DHT22;38339;53.234;6.578;2022-07-06T13:26:47;19.70;95.50
52413;DHT22;38339;53.234;6.578;2022-07-06T13:29:13;19.70;95.70
52413;DHT22;38339;53.234;6.578;2022-07-06T13:31:40;19.60;95.50
52413;DHT22;38339;53.234;6.578;2022-07-06T13:34:07;19.60;95.10
52413;DHT22;38339;53.234;6.578;2022-07-06T13:36:34;19.50;94.70
52413;DHT22;38339;53.234;6.578;2022-07-06T13:39:01;19.50;95.10
52413;DHT22;38339;53.234;6.578;2022-07-06T13:41:26;19.50;94.90
52413;DHT22;38339;53.234;6.578;2022-07-06T13:43:52;19.50;95.00
52413;DHT22;38339;53.234;6.578;2022-07-06T13:46:18;19.50;94.80
52413;DHT22;38339;53.234;6.578;2022-07-06T13:48:44;19.40;94.20
52413;DHT22;38339;53.234;6.578;2022-07-06T13:51:10;19.30;94.50
52413;DHT22;38339;53.234;6.578;2022-07-06T13:53:36;19.20;94.30
52413;DHT22;38339;53.234;6.578;2022-07-06T13:56:02;19.20;94.60
52413;DHT22;38339;53.234;6.578;2022-07-06T13:58:28;19.10;94.50
52413;DHT22;38339;53.234;6.578;2022-07-06T14:00:54;19.10;94.80
52413;DHT22;38339;53.234;6.578;2022-07-06T14:03:20;19.00;95.00
52413;DHT22;38339;53.234;6.578;2022-07-06T14:05:47;19.10;95.10
52413;DHT22;38339;53.234;6.578;2022-07-06T14:08:13;19.10;95.30
52413;DHT22;38339;53.234;6.578;2022-07-06T14:10:38;19.10;95.40
52413;DHT22;38339;53.234;6.578;2022-07-06T14:13:04;19.10;95.50
52413;DHT22;38339;53.234;6.578;2022-07-06T14:15:30;19.10;95.40
52413;DHT22;38339;53.234;6.578;2022-07-06T14:17:55;19.00;95.30
52413;DHT22;38339;53.234;6.578;2022-07-06T14:20:21;18.80;95.60
52413;DHT22;38339;53.234;6.578;2022-07-06T14:22:47;18.70;95.80
52413;DHT22;38339;53.234;6.578;2022-07-06T14:25:12;18.60;96.00
52413;DHT22;38339;53.234;6.578;2022-07-06T14:27:38;18.60;96.00
52413;DHT22;38339;53.234;6.578;2022-07-06T14:30:06;18.60;96.00
52413;DHT22;38339;53.234;6.578;2022-07-06T14:32:32;18.70;96.20
52413;DHT22;38339;53.234;6.578;2022-07-06T14:34:57;18.70;96.50
52413;DHT22;38339;53.234;6.578;2022-07-06T14:37:23;18.60;96.70
52413;DHT22;38339;53.234;6.578;2022-07-06T14:39:49;18.50;96.90
52413;DHT22;38339;53.234;6.578;2022-07-06T14:42:15;18.50;97.40
52413;DHT22;38339;53.234;6.578;2022-07-06T14:44:41;18.50;97.40
52413;DHT22;38339;53.234;6.578;2022-07-06T14:47:07;18.50;97.50
52413;DHT22;38339;53.234;6.578;2022-07-06T14:49:32;18.40;97.70
52413;DHT22;38339;53.234;6.578;2022-07-06T14:51:58;18.40;97.90
52413;DHT22;38339;53.234;6.578;2022-07-06T14:54:25;18.40;98.20
52413;DHT22;38339;53.234;6.578;2022-07-06T14:56:51;18.30;98.50
52413;DHT22;38339;53.234;6.578;2022-07-06T14:59:17;18.30;98.70
52413;DHT22;38339;53.234;6.578;2022-07-06T15:01:43;18.00;99.90
52413;DHT22;38339;53.234;6.578;2022-07-06T15:04:09;17.80;99.90
52413;DHT22;38339;53.234;6.578;2022-07-06T15:06:35;17.60;99.90
52413;DHT22;38339;53.234;6.578;2022-07-06T15:09:02;17.40;99.90
52413;DHT22;38339;53.234;6.578;2022-07-06T15:11:35;17.10;99.90
52413;DHT22;38339;53.234;6.578;2022-07-06T15:14:01;16.90;99.90
52413;DHT22;38339;53.234;6.578;2022-07-06T15:16:26;16.80;99.90
52413;DHT22;38339;53.234;6.578;2022-07-06T15:18:52;16.70;99.90
52413;DHT22;38339;53.234;6.578;2022-07-06T15:21:18;16.80;99.90
52413;DHT22;38339;53.234;6.578;2022-07-06T15:23:43;16.80;99.90
52413;DHT22;38339;53.234;6.578;2022-07-06T15:26:10;16.80;99.90
52413;DHT22;38339;53.234;6.578;2022-07-06T15:28:36;16.90;99.90
52413;DHT22;38339;53.234;6.578;2022-07-06T15:31:01;16.90;99.90
52413;DHT22;38339;53.234;6.578;2022-07-06T15:33:27;17.00;99.90
52413;DHT22;38339;53.234;6.578;2022-07-06T15:35:53;17.00;99.90
52413;DHT22;38339;53.234;6.578;2022-07-06T15:38:19;17.00;99.90
52413;DHT22;38339;53.234;6.578;2022-07-06T15:40:53;17.10;99.90
52413;DHT22;38339;53.234;6.578;2022-07-06T15:43:25;17.10;99.90
52413;DHT22;38339;53.234;6.578;2022-07-06T15:45:59;17.10;99.90
52413;DHT22;38339;53.234;6.578;2022-07-06T15:48:26;17.10;99.90
52413;DHT22;38339;53.234;6.578;2022-07-06T15:50:53;17.00;99.90
52413;DHT22;38339;53.234;6.578;2022-07-06T15:53:19;16.80;99.90
52413;DHT22;38339;53.234;6.578;2022-07-06T15:55:45;16.70;99.90